createdAt,value
2017-09-25T00:00:05.724Z,0
2017-09-25T00:00:46.175Z,0
2017-09-25T00:01:26.635Z,0
2017-09-25T00:02:07.091Z,0
2017-09-25T00:02:47.549Z,0
2017-09-25T00:03:28.010Z,0
2017-09-25T00:04:08.462Z,0
2017-09-25T00:04:48.909Z,0
2017-09-25T00:05:29.359Z,0
2017-09-25T00:06:09.823Z,0
2017-09-25T00:06:50.277Z,0
2017-09-25T00:07:30.736Z,0
2017-09-25T00:08:11.192Z,0
2017-09-25T00:08:51.647Z,0
2017-09-25T00:09:32.104Z,0
2017-09-25T00:10:12.555Z,0
2017-09-25T00:10:53.013Z,0
2017-09-25T00:11:33.469Z,0
2017-09-25T00:12:13.919Z,0
2017-09-25T00:12:54.376Z,0
2017-09-25T00:13:34.831Z,0
2017-09-25T00:14:15.288Z,0
2017-09-25T00:14:55.742Z,0
2017-09-25T00:15:36.194Z,0
2017-09-25T00:16:16.650Z,0
2017-09-25T00:16:57.099Z,0
2017-09-25T00:17:37.555Z,0
2017-09-25T00:18:18.009Z,0
2017-09-25T00:18:58.470Z,0
2017-09-25T00:19:38.926Z,0
2017-09-25T00:20:19.386Z,0
2017-09-25T00:20:59.832Z,0
2017-09-25T00:21:40.282Z,0
2017-09-25T00:22:20.735Z,0
2017-09-25T00:23:01.192Z,0
2017-09-25T00:23:41.647Z,0
2017-09-25T00:24:22.109Z,0
2017-09-25T00:25:02.558Z,0
2017-09-25T00:25:43.011Z,0
2017-09-25T00:26:23.473Z,0
2017-09-25T00:27:03.925Z,0
2017-09-25T00:27:44.392Z,0
2017-09-25T00:28:24.851Z,0
2017-09-25T00:29:05.302Z,0
2017-09-25T00:29:45.758Z,0
2017-09-25T00:30:26.210Z,0
2017-09-25T00:31:06.698Z,0
2017-09-25T00:31:47.118Z,0
2017-09-25T00:32:27.580Z,0
2017-09-25T00:33:08.033Z,0
2017-09-25T00:33:48.481Z,0
2017-09-25T00:34:28.935Z,0
2017-09-25T00:35:09.387Z,0
2017-09-25T00:35:49.851Z,0
2017-09-25T00:36:30.307Z,0
2017-09-25T00:37:10.761Z,0
2017-09-25T00:37:51.221Z,0
2017-09-25T00:38:31.678Z,0
2017-09-25T00:39:12.130Z,0
2017-09-25T00:39:52.587Z,0
2017-09-25T00:40:33.043Z,0
2017-09-25T00:41:13.497Z,0
2017-09-25T00:41:53.949Z,0
2017-09-25T00:42:34.413Z,0
2017-09-25T00:43:14.865Z,0
2017-09-25T00:43:55.316Z,0
2017-09-25T00:44:35.766Z,0
2017-09-25T00:45:16.220Z,0
2017-09-25T00:45:56.680Z,0
2017-09-25T00:46:37.137Z,0
2017-09-25T00:47:17.589Z,0
2017-09-25T00:47:58.048Z,0
2017-09-25T00:48:38.506Z,0
2017-09-25T00:49:18.955Z,0
2017-09-25T00:49:59.409Z,0
2017-09-25T00:50:39.859Z,0
2017-09-25T00:51:20.316Z,0
2017-09-25T00:52:00.770Z,0
2017-09-25T00:52:41.227Z,0
2017-09-25T00:53:21.699Z,0
2017-09-25T00:54:02.135Z,0
2017-09-25T00:54:42.588Z,0
2017-09-25T00:55:23.048Z,0
2017-09-25T00:56:03.505Z,0
2017-09-25T00:56:43.968Z,0
2017-09-25T00:57:24.429Z,0
2017-09-25T00:58:04.887Z,0
2017-09-25T00:58:45.337Z,0
2017-09-25T00:59:25.801Z,0
2017-09-25T01:00:06.248Z,0
2017-09-25T01:00:46.705Z,0
2017-09-25T01:01:27.159Z,0
2017-09-25T01:02:07.620Z,0
2017-09-25T01:02:48.071Z,0
2017-09-25T01:03:28.525Z,0
2017-09-25T01:04:08.988Z,0
2017-09-25T01:04:49.450Z,0
2017-09-25T01:05:29.906Z,0
2017-09-25T01:06:10.360Z,0
2017-09-25T01:06:50.819Z,0
2017-09-25T01:07:31.269Z,0
2017-09-25T01:08:11.719Z,0
2017-09-25T01:08:52.174Z,0
2017-09-25T01:09:32.632Z,0
2017-09-25T01:10:13.096Z,0
2017-09-25T01:10:53.537Z,0
2017-09-25T01:11:33.989Z,0
2017-09-25T01:12:14.452Z,0
2017-09-25T01:12:54.906Z,0
2017-09-25T01:13:35.361Z,0
2017-09-25T01:14:15.817Z,0
2017-09-25T01:14:56.270Z,0
2017-09-25T01:15:36.724Z,0
2017-09-25T01:16:17.177Z,0
2017-09-25T01:16:57.632Z,0
2017-09-25T01:17:38.086Z,0
2017-09-25T01:18:18.544Z,0
2017-09-25T01:18:59.000Z,0
2017-09-25T01:19:39.451Z,0
2017-09-25T01:20:19.916Z,0
2017-09-25T01:21:00.366Z,0
2017-09-25T01:21:40.821Z,0
2017-09-25T01:22:21.274Z,0
2017-09-25T01:23:01.735Z,0
2017-09-25T01:23:42.182Z,0
2017-09-25T01:24:22.639Z,0
2017-09-25T01:25:03.102Z,0
2017-09-25T01:25:43.556Z,0
2017-09-25T01:26:24.011Z,0
2017-09-25T01:27:04.464Z,0
2017-09-25T01:27:44.921Z,0
2017-09-25T01:28:25.381Z,0
2017-09-25T01:29:05.833Z,0
2017-09-25T01:29:46.288Z,0
2017-09-25T01:30:26.742Z,0
2017-09-25T01:31:07.205Z,0
2017-09-25T01:31:47.659Z,0
2017-09-25T01:32:28.112Z,0
2017-09-25T01:33:08.570Z,0
2017-09-25T01:33:49.026Z,0
2017-09-25T01:34:29.484Z,0
2017-09-25T01:35:09.944Z,0
2017-09-25T01:35:50.403Z,0
2017-09-25T01:36:30.854Z,0
2017-09-25T01:37:11.311Z,0
2017-09-25T01:37:51.766Z,0
2017-09-25T01:38:32.220Z,0
2017-09-25T01:39:12.657Z,0
2017-09-25T01:39:53.112Z,0
2017-09-25T01:40:33.567Z,0
2017-09-25T01:41:14.020Z,0
2017-09-25T01:41:54.483Z,0
2017-09-25T01:42:34.935Z,0
2017-09-25T01:43:15.391Z,0
2017-09-25T01:43:55.847Z,0
2017-09-25T01:44:36.300Z,0
2017-09-25T01:45:16.755Z,0
2017-09-25T01:45:57.209Z,0
2017-09-25T01:46:37.664Z,0
2017-09-25T01:47:18.120Z,0
2017-09-25T01:47:58.572Z,0
2017-09-25T01:48:39.039Z,0
2017-09-25T01:49:19.491Z,0
2017-09-25T01:49:59.956Z,0
2017-09-25T01:50:40.410Z,0
2017-09-25T01:51:20.865Z,0
2017-09-25T01:52:01.309Z,0
2017-09-25T01:52:41.765Z,0
2017-09-25T01:53:22.217Z,0
2017-09-25T01:54:02.675Z,0
2017-09-25T01:54:43.132Z,0
2017-09-25T01:55:23.589Z,0
2017-09-25T01:56:04.048Z,0
2017-09-25T01:56:44.508Z,0
2017-09-25T01:57:24.964Z,0
2017-09-25T01:58:05.432Z,0
2017-09-25T01:58:45.885Z,0
2017-09-25T01:59:26.338Z,0
2017-09-25T02:00:06.793Z,0
2017-09-25T02:00:47.237Z,0
2017-09-25T02:01:27.691Z,0
2017-09-25T02:02:08.144Z,0
2017-09-25T02:02:48.603Z,0
2017-09-25T02:03:29.057Z,0
2017-09-25T02:04:09.517Z,0
2017-09-25T02:04:49.962Z,0
2017-09-25T02:05:30.418Z,0
2017-09-25T02:06:10.874Z,0
2017-09-25T02:06:51.334Z,0
2017-09-25T02:07:31.777Z,0
2017-09-25T02:08:12.236Z,0
2017-09-25T02:08:52.705Z,0
2017-09-25T02:09:33.149Z,0
2017-09-25T02:10:13.604Z,0
2017-09-25T02:10:54.063Z,0
2017-09-25T02:11:34.518Z,0
2017-09-25T02:12:14.962Z,0
2017-09-25T02:12:55.421Z,0
2017-09-25T02:13:35.881Z,0
2017-09-25T02:14:16.332Z,0
2017-09-25T02:14:56.788Z,0
2017-09-25T02:15:37.243Z,0
2017-09-25T02:16:17.695Z,0
2017-09-25T02:16:58.149Z,0
2017-09-25T02:17:38.597Z,0
2017-09-25T02:18:19.058Z,0
2017-09-25T02:18:59.508Z,0
2017-09-25T02:19:39.975Z,0
2017-09-25T02:20:20.430Z,0
2017-09-25T02:21:00.909Z,0
2017-09-25T02:21:41.352Z,0
2017-09-25T02:22:21.804Z,0
2017-09-25T02:23:02.255Z,0
2017-09-25T02:23:42.710Z,0
2017-09-25T02:24:23.160Z,0
2017-09-25T02:25:03.605Z,0
2017-09-25T02:25:44.064Z,0
2017-09-25T02:26:24.508Z,0
2017-09-25T02:27:04.957Z,0
2017-09-25T02:27:45.409Z,0
2017-09-25T02:28:25.860Z,0
2017-09-25T02:29:06.320Z,0
2017-09-25T02:29:46.768Z,0
2017-09-25T02:30:27.225Z,0
2017-09-25T02:31:07.691Z,0
2017-09-25T02:31:48.147Z,0
2017-09-25T02:32:28.600Z,0
2017-09-25T02:33:09.055Z,0
2017-09-25T02:33:49.514Z,0
2017-09-25T02:34:29.967Z,0
2017-09-25T02:35:10.425Z,0
2017-09-25T02:35:50.876Z,0
2017-09-25T02:36:31.333Z,0
2017-09-25T02:37:11.789Z,0
2017-09-25T02:37:52.250Z,0
2017-09-25T02:38:32.703Z,0
2017-09-25T02:39:13.163Z,0
2017-09-25T02:39:53.623Z,0
2017-09-25T02:40:34.077Z,0
2017-09-25T02:41:14.535Z,0
2017-09-25T02:41:55.000Z,0
2017-09-25T02:42:35.453Z,0
2017-09-25T02:43:15.911Z,0
2017-09-25T02:43:56.372Z,0
2017-09-25T02:44:36.820Z,0
2017-09-25T02:45:17.271Z,0
2017-09-25T02:45:57.728Z,0
2017-09-25T02:46:38.180Z,0
2017-09-25T02:47:18.646Z,0
2017-09-25T02:47:59.107Z,0
2017-09-25T02:48:39.567Z,0
2017-09-25T02:49:20.025Z,0
2017-09-25T02:50:00.484Z,0
2017-09-25T02:50:40.939Z,0
2017-09-25T02:51:21.393Z,0
2017-09-25T02:52:01.848Z,0
2017-09-25T02:52:42.299Z,0
2017-09-25T02:53:22.750Z,0
2017-09-25T02:54:03.208Z,0
2017-09-25T02:54:43.689Z,0
2017-09-25T02:55:24.141Z,0
2017-09-25T02:56:04.591Z,0
2017-09-25T02:56:45.056Z,0
2017-09-25T02:57:25.506Z,0
2017-09-25T02:58:05.963Z,0
2017-09-25T02:58:46.421Z,0
2017-09-25T02:59:26.877Z,0
2017-09-25T03:00:07.334Z,0
2017-09-25T03:00:47.798Z,0
2017-09-25T03:01:28.249Z,0
2017-09-25T03:02:08.704Z,0
2017-09-25T03:02:49.162Z,0
2017-09-25T03:03:29.620Z,0
2017-09-25T03:04:10.073Z,0
2017-09-25T03:04:50.537Z,0
2017-09-25T03:05:30.992Z,0
2017-09-25T03:06:11.453Z,0
2017-09-25T03:06:51.907Z,0
2017-09-25T03:07:32.370Z,0
2017-09-25T03:08:12.823Z,0
2017-09-25T03:08:53.284Z,0
2017-09-25T03:09:33.735Z,0
2017-09-25T03:10:14.192Z,0
2017-09-25T03:10:54.647Z,0
2017-09-25T03:11:35.103Z,0
2017-09-25T03:12:15.558Z,0
2017-09-25T03:12:56.015Z,0
2017-09-25T03:13:36.471Z,0
2017-09-25T03:14:16.912Z,0
2017-09-25T03:14:57.371Z,0
2017-09-25T03:15:37.831Z,0
2017-09-25T03:16:18.287Z,0
2017-09-25T03:16:58.744Z,0
2017-09-25T03:17:39.200Z,0
2017-09-25T03:18:19.651Z,0
2017-09-25T03:19:00.104Z,0
2017-09-25T03:19:40.566Z,0
2017-09-25T03:20:21.019Z,0
2017-09-25T03:21:01.479Z,0
2017-09-25T03:21:41.934Z,0
2017-09-25T03:22:22.389Z,0
2017-09-25T03:23:02.845Z,0
2017-09-25T03:23:43.300Z,0
2017-09-25T03:24:23.806Z,0
2017-09-25T03:25:04.200Z,0
2017-09-25T03:25:44.656Z,0
2017-09-25T03:26:25.110Z,0
2017-09-25T03:27:05.568Z,0
2017-09-25T03:27:46.025Z,0
2017-09-25T03:28:26.477Z,0
2017-09-25T03:29:06.934Z,0
2017-09-25T03:29:47.388Z,0
2017-09-25T03:30:27.848Z,0
2017-09-25T03:31:08.304Z,0
2017-09-25T03:31:48.759Z,0
2017-09-25T03:32:29.230Z,0
2017-09-25T03:33:09.698Z,0
2017-09-25T03:33:50.158Z,0
2017-09-25T03:34:30.613Z,0
2017-09-25T03:35:11.063Z,0
2017-09-25T03:35:51.520Z,0
2017-09-25T03:36:31.968Z,0
2017-09-25T03:37:12.425Z,0
2017-09-25T03:37:52.878Z,0
2017-09-25T03:38:33.332Z,0
2017-09-25T03:39:13.795Z,0
2017-09-25T03:39:54.249Z,0
2017-09-25T03:40:34.703Z,0
2017-09-25T03:41:15.201Z,0
2017-09-25T03:41:55.655Z,0
2017-09-25T03:42:36.118Z,0
2017-09-25T03:43:16.587Z,0
2017-09-25T03:43:57.041Z,0
2017-09-25T03:44:37.499Z,0
2017-09-25T03:45:17.948Z,0
2017-09-25T03:45:58.399Z,0
2017-09-25T03:46:38.869Z,0
2017-09-25T03:47:19.325Z,0
2017-09-25T03:47:59.783Z,0
2017-09-25T03:48:40.241Z,0
2017-09-25T03:49:20.694Z,0
2017-09-25T03:50:01.142Z,0
2017-09-25T03:50:41.610Z,0
2017-09-25T03:51:22.067Z,0
2017-09-25T03:52:02.509Z,0
2017-09-25T03:52:42.971Z,0
2017-09-25T03:53:23.418Z,0
2017-09-25T03:54:03.882Z,0
2017-09-25T03:54:44.341Z,0
2017-09-25T03:55:24.794Z,0
2017-09-25T03:56:05.246Z,0
2017-09-25T03:56:45.698Z,0
2017-09-25T03:57:26.148Z,0
2017-09-25T03:58:06.604Z,0
2017-09-25T03:58:47.074Z,0
2017-09-25T03:59:27.525Z,0
2017-09-25T04:00:07.970Z,0
2017-09-25T04:00:48.403Z,0
2017-09-25T04:01:28.874Z,0
2017-09-25T04:02:09.337Z,0
2017-09-25T04:02:49.784Z,0
2017-09-25T04:03:30.236Z,0
2017-09-25T04:04:10.695Z,0
2017-09-25T04:04:51.129Z,0
2017-09-25T04:05:31.580Z,0
2017-09-25T04:06:12.035Z,0
2017-09-25T04:06:52.489Z,0
2017-09-25T04:07:32.947Z,0
2017-09-25T04:08:13.395Z,0
2017-09-25T04:08:53.865Z,0
2017-09-25T04:09:34.296Z,0
2017-09-25T04:10:14.742Z,0
2017-09-25T04:10:55.192Z,0
2017-09-25T04:11:35.653Z,0
2017-09-25T04:12:16.104Z,0
2017-09-25T04:12:56.551Z,0
2017-09-25T04:13:37.002Z,0
2017-09-25T04:14:17.454Z,0
2017-09-25T04:14:57.906Z,0
2017-09-25T04:15:38.353Z,0
2017-09-25T04:16:18.797Z,0
2017-09-25T04:16:59.267Z,0
2017-09-25T04:17:39.718Z,0
2017-09-25T04:18:20.178Z,0
2017-09-25T04:19:00.635Z,0
2017-09-25T04:19:41.087Z,0
2017-09-25T04:20:21.536Z,0
2017-09-25T04:21:02.002Z,0
2017-09-25T04:21:42.440Z,0
2017-09-25T04:22:22.922Z,0
2017-09-25T04:23:03.377Z,0
2017-09-25T04:23:43.831Z,0
2017-09-25T04:24:24.281Z,0
2017-09-25T04:25:04.734Z,0
2017-09-25T04:25:45.197Z,0
2017-09-25T04:26:25.680Z,0
2017-09-25T04:27:06.110Z,0
2017-09-25T04:27:46.573Z,0
2017-09-25T04:28:27.048Z,0
2017-09-25T04:29:07.504Z,0
2017-09-25T04:29:47.963Z,0
2017-09-25T04:30:28.416Z,0
2017-09-25T04:31:08.863Z,0
2017-09-25T04:31:49.393Z,0
2017-09-25T04:32:29.849Z,0
2017-09-25T04:33:10.313Z,0
2017-09-25T04:33:50.768Z,0
2017-09-25T04:34:31.223Z,0
2017-09-25T04:35:11.683Z,0
2017-09-25T04:35:52.137Z,0
2017-09-25T04:36:32.595Z,0
2017-09-25T04:37:13.053Z,0
2017-09-25T04:37:53.510Z,0
2017-09-25T04:38:33.960Z,0
2017-09-25T04:39:14.418Z,0
2017-09-25T04:39:54.877Z,0
2017-09-25T04:40:35.327Z,0
2017-09-25T04:41:15.783Z,0
2017-09-25T04:41:56.232Z,0
2017-09-25T04:42:36.689Z,0
2017-09-25T04:43:17.145Z,0
2017-09-25T04:43:57.595Z,0
2017-09-25T04:44:38.053Z,0
2017-09-25T04:45:18.517Z,0
2017-09-25T04:45:58.973Z,0
2017-09-25T04:46:39.421Z,0
2017-09-25T04:47:19.884Z,0
2017-09-25T04:48:00.338Z,0
2017-09-25T04:48:40.784Z,0
2017-09-25T04:49:21.245Z,0
2017-09-25T04:50:01.703Z,0
2017-09-25T04:50:42.156Z,0
2017-09-25T04:51:22.599Z,0
2017-09-25T04:52:03.065Z,0
2017-09-25T04:52:43.560Z,0
2017-09-25T04:53:23.997Z,0
2017-09-25T04:54:04.450Z,0
2017-09-25T04:54:44.905Z,0
2017-09-25T04:55:25.354Z,0
2017-09-25T04:56:05.818Z,0
2017-09-25T04:56:46.274Z,0
2017-09-25T04:57:26.728Z,0
2017-09-25T04:58:07.188Z,0
2017-09-25T04:58:47.646Z,0
2017-09-25T04:59:28.106Z,0
2017-09-25T05:00:08.566Z,0
2017-09-25T05:00:49.017Z,0
2017-09-25T05:01:29.470Z,0
2017-09-25T05:02:09.979Z,0
2017-09-25T05:02:50.430Z,0
2017-09-25T05:03:30.887Z,0
2017-09-25T05:04:11.323Z,0
2017-09-25T05:04:51.782Z,0
2017-09-25T05:05:32.248Z,0
2017-09-25T05:06:12.692Z,0
2017-09-25T05:06:53.150Z,0
2017-09-25T05:07:33.611Z,0
2017-09-25T05:08:14.065Z,0
2017-09-25T05:08:54.524Z,0
2017-09-25T05:09:34.986Z,0
2017-09-25T05:10:15.436Z,0
2017-09-25T05:10:55.880Z,0
2017-09-25T05:11:36.333Z,0
2017-09-25T05:12:16.788Z,0
2017-09-25T05:12:57.249Z,0
2017-09-25T05:13:37.695Z,0
2017-09-25T05:14:18.153Z,0
2017-09-25T05:14:58.607Z,0
2017-09-25T05:15:39.071Z,0
2017-09-25T05:16:19.511Z,0
2017-09-25T05:16:59.969Z,0
2017-09-25T05:17:40.420Z,0
2017-09-25T05:18:20.886Z,0
2017-09-25T05:19:01.334Z,0
2017-09-25T05:19:41.784Z,0
2017-09-25T05:20:22.253Z,0
2017-09-25T05:21:02.705Z,0
2017-09-25T05:21:43.160Z,0
2017-09-25T05:22:23.620Z,0
2017-09-25T05:23:04.073Z,0
2017-09-25T05:23:44.529Z,0
2017-09-25T05:24:24.980Z,0
2017-09-25T05:25:05.431Z,0
2017-09-25T05:25:45.887Z,0
2017-09-25T05:26:26.341Z,0
2017-09-25T05:27:06.804Z,0
2017-09-25T05:27:47.256Z,0
2017-09-25T05:28:27.703Z,0
2017-09-25T05:29:08.155Z,0
2017-09-25T05:29:48.610Z,0
2017-09-25T05:30:29.067Z,0
2017-09-25T05:31:09.520Z,0
2017-09-25T05:31:50.034Z,0
2017-09-25T05:32:30.493Z,0
2017-09-25T05:33:10.958Z,0
2017-09-25T05:33:51.407Z,0
2017-09-25T05:34:31.852Z,0
2017-09-25T05:35:12.305Z,0
2017-09-25T05:35:52.768Z,0
2017-09-25T05:36:33.231Z,0
2017-09-25T05:37:13.679Z,0
2017-09-25T05:37:54.128Z,0
2017-09-25T05:38:34.584Z,0
2017-09-25T05:39:15.051Z,0
2017-09-25T05:39:55.502Z,0
2017-09-25T05:40:35.962Z,0
2017-09-25T05:41:16.418Z,5
2017-09-25T05:41:56.943Z,5
2017-09-25T05:42:37.422Z,5
2017-09-25T05:43:17.860Z,5
2017-09-25T05:43:58.319Z,5
2017-09-25T05:44:38.777Z,5
2017-09-25T05:45:19.239Z,5
2017-09-25T05:45:59.688Z,5
2017-09-25T05:46:40.141Z,5
2017-09-25T05:47:20.604Z,5
2017-09-25T05:48:01.062Z,5
2017-09-25T05:48:41.522Z,5
2017-09-25T05:49:21.972Z,5
2017-09-25T05:50:02.431Z,5
2017-09-25T05:50:42.894Z,5
2017-09-25T05:51:23.341Z,5
2017-09-25T05:53:56.461Z,5
2017-09-25T05:54:36.919Z,5
2017-09-25T05:55:17.372Z,5
2017-09-25T05:55:57.826Z,5
2017-09-25T05:56:38.293Z,5
2017-09-25T05:57:18.728Z,5
2017-09-25T05:57:59.180Z,10
2017-09-25T05:58:39.639Z,10
2017-09-25T05:59:20.093Z,10
2017-09-25T06:00:00.548Z,10
2017-09-25T06:00:40.999Z,10
2017-09-25T06:01:21.458Z,10
2017-09-25T06:02:01.912Z,10
2017-09-25T06:02:42.370Z,10
2017-09-25T06:03:22.821Z,10
2017-09-25T06:04:03.272Z,10
2017-09-25T06:04:43.722Z,15
2017-09-25T06:05:24.187Z,15
2017-09-25T06:06:04.635Z,15
2017-09-25T06:06:45.090Z,15
2017-09-25T06:07:25.536Z,15
2017-09-25T06:08:05.984Z,15
2017-09-25T06:08:46.441Z,15
2017-09-25T06:09:26.886Z,15
2017-09-25T06:10:07.342Z,15
2017-09-25T06:10:47.796Z,15
2017-09-25T06:11:28.252Z,15
2017-09-25T06:12:08.703Z,15
2017-09-25T06:12:49.158Z,20
2017-09-25T06:13:29.618Z,20
2017-09-25T06:14:10.069Z,20
2017-09-25T06:14:50.518Z,20
2017-09-25T06:15:30.973Z,20
2017-09-25T06:16:11.424Z,20
2017-09-25T06:16:51.882Z,20
2017-09-25T06:17:32.337Z,20
2017-09-25T06:18:12.794Z,20
2017-09-25T06:18:53.246Z,20
2017-09-25T06:19:33.703Z,20
2017-09-25T06:20:14.157Z,25
2017-09-25T06:20:54.612Z,25
2017-09-25T06:21:35.072Z,25
2017-09-25T06:22:15.525Z,25
2017-09-25T06:22:55.973Z,25
2017-09-25T06:23:36.412Z,25
2017-09-25T06:24:16.864Z,25
2017-09-25T06:24:57.319Z,25
2017-09-25T06:25:37.770Z,25
2017-09-25T06:26:18.234Z,30
2017-09-25T06:26:58.681Z,30
2017-09-25T06:27:39.131Z,30
2017-09-25T06:28:19.594Z,30
2017-09-25T06:29:00.047Z,30
2017-09-25T06:29:40.503Z,30
2017-09-25T06:30:20.952Z,30
2017-09-25T06:31:01.400Z,30
2017-09-25T06:31:41.852Z,30
2017-09-25T06:32:22.300Z,30
2017-09-25T06:33:02.753Z,35
2017-09-25T06:33:43.200Z,35
2017-09-25T06:34:23.651Z,35
2017-09-25T06:35:04.111Z,35
2017-09-25T06:35:44.567Z,35
2017-09-25T06:36:25.020Z,35
2017-09-25T06:37:05.462Z,35
2017-09-25T06:37:45.922Z,35
2017-09-25T06:38:26.374Z,35
2017-09-25T06:39:06.829Z,35
2017-09-25T06:39:47.285Z,35
2017-09-25T06:40:27.733Z,40
2017-09-25T06:41:08.192Z,40
2017-09-25T06:41:48.645Z,40
2017-09-25T06:42:29.094Z,40
2017-09-25T06:43:09.580Z,40
2017-09-25T06:43:50.034Z,40
2017-09-25T06:44:30.491Z,40
2017-09-25T06:45:10.971Z,40
2017-09-25T06:45:51.403Z,40
2017-09-25T06:46:31.856Z,40
2017-09-25T06:47:12.308Z,40
2017-09-25T06:47:52.775Z,40
2017-09-25T06:48:33.238Z,35
2017-09-25T06:49:13.693Z,35
2017-09-25T06:49:54.149Z,35
2017-09-25T06:50:34.603Z,35
2017-09-25T06:51:15.058Z,35
2017-09-25T06:51:55.511Z,40
2017-09-25T06:52:35.981Z,40
2017-09-25T06:53:16.435Z,40
2017-09-25T06:53:56.890Z,40
2017-09-25T06:54:37.345Z,35
2017-09-25T06:55:17.794Z,35
2017-09-25T06:55:58.250Z,35
2017-09-25T06:56:38.750Z,35
2017-09-25T06:57:19.209Z,35
2017-09-25T06:57:59.665Z,35
2017-09-25T06:58:40.122Z,35
2017-09-25T06:59:20.570Z,35
2017-09-25T07:00:01.024Z,40
2017-09-25T07:00:41.482Z,40
2017-09-25T07:01:21.936Z,40
2017-09-25T07:02:02.392Z,40
2017-09-25T07:02:42.848Z,40
2017-09-25T07:03:23.299Z,45
2017-09-25T07:04:03.752Z,45
2017-09-25T07:04:44.201Z,45
2017-09-25T07:05:24.658Z,45
2017-09-25T07:06:05.099Z,50
2017-09-25T07:06:45.556Z,50
2017-09-25T07:07:26.003Z,55
2017-09-25T07:08:06.451Z,55
2017-09-25T07:08:46.908Z,60
2017-09-25T07:09:27.365Z,60
2017-09-25T07:10:07.809Z,65
2017-09-25T07:10:48.272Z,70
2017-09-25T07:11:28.799Z,70
2017-09-25T07:12:09.749Z,75
2017-09-25T07:12:50.203Z,75
2017-09-25T07:13:30.641Z,75
2017-09-25T07:14:11.095Z,80
2017-09-25T07:14:51.624Z,80
2017-09-25T07:15:32.194Z,80
2017-09-25T07:16:13.466Z,85
2017-09-25T07:16:53.922Z,85
2017-09-25T07:17:34.375Z,85
2017-09-25T07:18:14.839Z,85
2017-09-25T07:18:55.298Z,90
2017-09-25T07:19:35.741Z,90
2017-09-25T07:20:16.198Z,90
2017-09-25T07:20:56.652Z,90
2017-09-25T07:21:37.103Z,90
2017-09-25T07:22:17.559Z,95
2017-09-25T07:22:58.014Z,95
2017-09-25T07:23:38.466Z,95
2017-09-25T07:24:18.920Z,95
2017-09-25T07:24:59.373Z,95
2017-09-25T07:25:39.830Z,95
2017-09-25T07:26:20.277Z,95
2017-09-25T07:27:00.732Z,100
2017-09-25T07:27:41.184Z,100
2017-09-25T07:28:21.632Z,100
2017-09-25T07:29:02.128Z,100
2017-09-25T07:29:42.545Z,100
2017-09-25T07:30:22.998Z,100
2017-09-25T07:31:03.453Z,100
2017-09-25T07:31:43.912Z,105
2017-09-25T07:32:24.982Z,105
2017-09-25T07:33:05.439Z,105
2017-09-25T07:33:45.900Z,105
2017-09-25T07:34:26.359Z,105
2017-09-25T07:35:06.802Z,105
2017-09-25T07:35:47.573Z,105
2017-09-25T07:36:28.021Z,105
2017-09-25T07:37:08.472Z,110
2017-09-25T07:37:48.962Z,110
2017-09-25T07:38:29.383Z,110
2017-09-25T07:39:09.824Z,110
2017-09-25T07:39:50.273Z,110
2017-09-25T07:40:30.732Z,110
2017-09-25T07:41:11.181Z,115
2017-09-25T07:41:51.602Z,115
2017-09-25T07:42:32.055Z,115
2017-09-25T07:43:12.504Z,115
2017-09-25T07:43:53.934Z,115
2017-09-25T07:44:34.385Z,115
2017-09-25T07:45:14.904Z,120
2017-09-25T07:45:55.346Z,120
2017-09-25T07:46:35.795Z,120
2017-09-25T07:47:16.445Z,120
2017-09-25T07:47:56.883Z,120
2017-09-25T07:48:37.321Z,120
2017-09-25T07:49:17.774Z,125
2017-09-25T07:49:58.220Z,125
2017-09-25T07:50:38.671Z,125
2017-09-25T07:51:19.250Z,125
2017-09-25T07:52:00.280Z,125
2017-09-25T07:52:40.181Z,125
2017-09-25T07:53:20.634Z,125
2017-09-25T07:54:01.123Z,125
2017-09-25T07:56:13.913Z,130
2017-09-25T07:56:54.496Z,130
2017-09-25T07:57:34.832Z,130
2017-09-25T07:58:15.294Z,130
2017-09-25T07:58:55.743Z,130
2017-09-25T07:59:36.198Z,135
2017-09-25T08:00:16.653Z,135
2017-09-25T08:00:57.109Z,135
2017-09-25T08:01:37.562Z,135
2017-09-25T08:02:18.036Z,135
2017-09-25T08:02:58.475Z,135
2017-09-25T08:03:38.926Z,135
2017-09-25T08:04:19.405Z,135
2017-09-25T08:04:59.842Z,135
2017-09-25T08:05:40.294Z,140
2017-09-25T08:06:20.748Z,140
2017-09-25T08:07:01.205Z,140
2017-09-25T08:07:41.650Z,140
2017-09-25T08:08:22.104Z,140
2017-09-25T08:09:02.543Z,140
2017-09-25T08:09:42.996Z,140
2017-09-25T08:10:23.450Z,140
2017-09-25T08:11:03.900Z,140
2017-09-25T08:11:44.354Z,140
2017-09-25T08:12:24.854Z,140
2017-09-25T08:13:05.310Z,145
2017-09-25T08:13:45.768Z,145
2017-09-25T08:14:26.206Z,145
2017-09-25T08:15:06.912Z,145
2017-09-25T08:15:47.370Z,145
2017-09-25T08:16:27.833Z,145
2017-09-25T08:17:08.301Z,145
2017-09-25T08:17:48.776Z,145
2017-09-25T08:18:29.228Z,150
2017-09-25T08:19:09.675Z,150
2017-09-25T08:19:50.133Z,150
2017-09-25T08:20:30.621Z,150
2017-09-25T08:21:11.077Z,150
2017-09-25T08:21:51.539Z,150
2017-09-25T08:22:31.992Z,150
2017-09-25T08:23:12.445Z,150
2017-09-25T08:23:52.899Z,150
2017-09-25T08:24:33.354Z,150
2017-09-25T08:25:13.800Z,150
2017-09-25T08:25:54.247Z,155
2017-09-25T08:26:34.704Z,155
2017-09-25T08:27:15.162Z,155
2017-09-25T08:27:55.618Z,155
2017-09-25T08:28:36.068Z,155
2017-09-25T08:29:16.516Z,155
2017-09-25T08:29:56.974Z,155
2017-09-25T08:30:37.434Z,155
2017-09-25T08:31:17.889Z,155
2017-09-25T08:31:58.345Z,155
2017-09-25T08:32:38.801Z,160
2017-09-25T08:33:19.257Z,160
2017-09-25T08:33:59.706Z,160
2017-09-25T08:34:40.165Z,160
2017-09-25T08:35:20.610Z,160
2017-09-25T08:36:01.068Z,160
2017-09-25T08:36:41.506Z,160
2017-09-25T08:37:21.998Z,160
2017-09-25T08:38:02.451Z,160
2017-09-25T08:38:42.936Z,160
2017-09-25T08:39:23.349Z,160
2017-09-25T08:40:03.797Z,160
2017-09-25T08:42:31.823Z,160
2017-09-25T08:43:12.281Z,160
2017-09-25T08:43:52.736Z,160
2017-09-25T08:44:33.182Z,160
2017-09-25T08:45:13.628Z,160
2017-09-25T08:45:54.082Z,160
2017-09-25T08:46:34.540Z,160
2017-09-25T08:47:14.997Z,160
2017-09-25T08:47:55.453Z,160
2017-09-25T08:48:35.890Z,160
2017-09-25T08:49:16.340Z,160
2017-09-25T08:49:56.796Z,160
2017-09-25T08:50:37.254Z,165
2017-09-25T08:51:17.706Z,165
2017-09-25T08:51:58.149Z,165
2017-09-25T08:52:38.605Z,165
2017-09-25T08:53:19.055Z,165
2017-09-25T08:53:59.533Z,165
2017-09-25T08:54:39.956Z,165
2017-09-25T08:55:20.403Z,165
2017-09-25T08:56:00.847Z,170
2017-09-25T08:56:41.298Z,165
2017-09-25T08:57:21.759Z,170
2017-09-25T08:58:02.208Z,170
2017-09-25T08:58:42.658Z,170
2017-09-25T08:59:23.116Z,170
2017-09-25T09:00:03.576Z,165
2017-09-25T09:00:44.039Z,170
2017-09-25T09:01:24.493Z,170
2017-09-25T09:02:04.956Z,170
2017-09-25T09:02:45.412Z,170
2017-09-25T09:03:25.866Z,170
2017-09-25T09:04:06.328Z,170
2017-09-25T09:04:46.781Z,170
2017-09-25T09:05:27.246Z,170
2017-09-25T09:06:07.693Z,170
2017-09-25T09:06:48.149Z,170
2017-09-25T09:07:28.600Z,170
2017-09-25T09:08:09.054Z,170
2017-09-25T09:08:49.512Z,175
2017-09-25T09:09:29.959Z,175
2017-09-25T09:10:10.422Z,170
2017-09-25T09:10:50.891Z,170
2017-09-25T09:11:31.347Z,170
2017-09-25T09:12:11.801Z,170
2017-09-25T09:12:52.251Z,175
2017-09-25T09:13:32.707Z,175
2017-09-25T09:14:13.163Z,175
2017-09-25T09:14:53.621Z,175
2017-09-25T09:15:34.075Z,175
2017-09-25T09:16:14.531Z,175
2017-09-25T09:16:54.988Z,175
2017-09-25T09:17:35.441Z,175
2017-09-25T09:18:15.890Z,175
2017-09-25T09:18:56.341Z,175
2017-09-25T09:19:36.794Z,175
2017-09-25T09:20:17.247Z,175
2017-09-25T09:20:57.714Z,175
2017-09-25T09:21:38.162Z,175
2017-09-25T09:22:18.640Z,180
2017-09-25T09:22:59.076Z,180
2017-09-25T09:23:39.536Z,180
2017-09-25T09:24:19.990Z,180
2017-09-25T09:25:00.476Z,180
2017-09-25T09:25:40.913Z,180
2017-09-25T09:26:21.365Z,180
2017-09-25T09:27:01.818Z,180
2017-09-25T09:27:42.278Z,175
2017-09-25T09:28:22.751Z,180
2017-09-25T09:29:03.207Z,180
2017-09-25T09:29:43.663Z,180
2017-09-25T09:30:24.126Z,180
2017-09-25T09:31:04.571Z,180
2017-09-25T09:31:45.028Z,180
2017-09-25T09:32:25.482Z,180
2017-09-25T09:33:05.945Z,180
2017-09-25T09:33:46.402Z,180
2017-09-25T09:34:26.857Z,180
2017-09-25T09:35:07.313Z,180
2017-09-25T09:35:47.767Z,180
2017-09-25T09:36:28.251Z,180
2017-09-25T09:37:08.702Z,180
2017-09-25T09:37:49.161Z,180
2017-09-25T09:38:29.620Z,180
2017-09-25T09:39:10.077Z,175
2017-09-25T09:39:50.536Z,175
2017-09-25T09:40:30.995Z,180
2017-09-25T09:41:11.446Z,180
2017-09-25T09:41:51.908Z,180
2017-09-25T09:42:32.366Z,180
2017-09-25T09:43:12.814Z,180
2017-09-25T09:43:53.262Z,180
2017-09-25T09:44:33.717Z,180
2017-09-25T09:45:14.181Z,180
2017-09-25T09:45:54.636Z,180
2017-09-25T09:46:35.096Z,180
2017-09-25T09:47:15.550Z,180
2017-09-25T09:47:56.004Z,180
2017-09-25T09:48:36.459Z,180
2017-09-25T09:49:16.913Z,180
2017-09-25T09:49:57.370Z,180